Time;durP1;ratioP1;P1;durP2;ratioP2;P2;SDS_P1;SDS_P2;PMS_P1;PMS_P2;Temp;Humidity;BMP_temperature;BMP_pressure;BME280_temperature;BME280_humidity;BME280_pressure;Samples;Min_cycle;Max_cycle;Signal;HPM_P1;HPM_P2
2024/01/11 00:00:13;;;;;;;83.05;33.90;;;;;;;-146.25;100.00;52611.50;2016374;29;30024;-67
2024/01/11 00:01:18;;;;;;;87.57;34.80;;;;;;;-146.25;100.00;52641.94;2016285;29;27944;-67
2024/01/11 00:02:22;;;;;;;87.97;35.13;;;;;;;-146.25;100.00;52617.59;2016400;29;30814;-67
2024/01/11 00:03:24;;;;;;;94.80;35.60;;;;;;;-146.25;100.00;52648.00;2024472;29;32994;-67
2024/01/11 00:04:26;;;;;;;83.78;33.63;;;;;;;-146.25;100.00;52603.41;2024027;29;37853;-67
2024/01/11 00:05:30;;;;;;;92.82;34.80;;;;;;;-146.25;100.00;52603.41;2024616;29;32062;-66
2024/01/11 00:06:32;;;;;;;92.82;36.03;;;;;;;-146.25;100.00;52627.75;2015888;29;34559;-67
2024/01/11 00:07:34;;;;;;;101.40;36.92;;;;;;;-146.25;100.00;52641.94;2009064;29;36293;-67
2024/01/11 00:08:38;;;;;;;98.35;36.65;;;;;;;-146.25;100.00;52623.69;2016581;29;20263;-67
2024/01/11 00:09:43;;;;;;;99.88;36.45;;;;;;;-146.25;100.00;52617.59;2024069;29;37147;-67
2024/01/11 00:10:45;;;;;;;106.25;37.35;;;;;;;-146.25;100.00;52650.03;2017226;29;20835;-67
2024/01/11 00:11:47;;;;;;;111.60;36.90;;;;;;;-146.25;100.00;52627.75;2016375;29;35553;-60
2024/01/11 00:12:49;;;;;;;136.30;38.42;;;;;;;-146.25;100.00;52615.56;2024375;29;34224;-67
2024/01/11 00:13:50;;;;;;;115.05;37.42;;;;;;;-146.25;100.00;52613.53;2024303;29;33100;-67
2024/01/11 00:14:53;;;;;;;116.40;36.95;;;;;;;-146.25;100.00;52625.72;2015735;29;36627;-66
2024/01/11 00:15:55;;;;;;;123.07;37.92;;;;;;;-146.25;100.00;52601.38;2016371;29;34380;-67
2024/01/11 00:16:56;;;;;;;119.10;38.72;;;;;;;-146.25;100.00;52637.88;2023662;29;33029;-67
2024/01/11 00:17:58;;;;;;;111.20;37.10;;;;;;;-146.25;100.00;52633.81;2024368;29;36880;-67
2024/01/11 00:19:00;;;;;;;111.38;37.90;;;;;;;-146.25;100.00;52629.75;2024665;29;32146;-67
2024/01/11 00:20:03;;;;;;;131.25;38.28;;;;;;;-146.25;100.00;52585.16;2016252;29;27809;-67
2024/01/11 00:21:05;;;;;;;123.20;35.63;;;;;;;-146.25;100.00;52617.59;2016558;29;35315;-67
2024/01/11 00:22:08;;;;;;;122.88;36.13;;;;;;;-146.25;100.00;52650.03;2024566;29;34486;-67
2024/01/11 00:23:10;;;;;;;136.68;36.92;;;;;;;-146.25;100.00;52648.00;2024099;29;36183;-67
2024/01/11 00:24:12;;;;;;;112.60;36.42;;;;;;;-146.25;100.00;52633.81;2015690;29;35387;-67
2024/01/11 00:25:14;;;;;;;142.40;39.28;;;;;;;-146.25;100.00;52625.72;2016084;29;30410;-67
2024/01/11 00:26:15;;;;;;;113.65;36.13;;;;;;;-146.25;100.00;52603.41;2016176;29;36560;-67
2024/01/11 00:27:17;;;;;;;112.03;36.28;;;;;;;-146.25;100.00;52623.69;2023839;29;35165;-67
2024/01/11 00:28:19;;;;;;;109.28;34.13;;;;;;;-146.25;100.00;52599.34;2024314;29;34552;-67
2024/01/11 00:29:21;;;;;;;106.15;35.85;;;;;;;-146.25;100.00;52633.81;2023999;29;32884;-67
2024/01/11 00:30:23;;;;;;;107.90;36.33;;;;;;;-146.25;100.00;52619.63;2024246;29;34995;-67
2024/01/11 00:31:25;;;;;;;122.32;38.22;;;;;;;-146.25;100.00;52603.41;2024188;29;32699;-67
2024/01/11 00:32:26;;;;;;;121.10;38.42;;;;;;;-146.25;100.00;52581.09;2024772;29;36884;-67
2024/01/11 00:33:31;;;;;;;113.53;36.65;;;;;;;-146.25;100.00;52615.56;2024917;29;20049;-67
2024/01/11 00:34:36;;;;;;;114.70;36.92;;;;;;;-146.25;100.00;52627.75;2024271;29;34883;-67
2024/01/11 00:35:38;;;;;;;115.25;36.47;;;;;;;-146.25;100.00;52615.56;2024318;29;34373;-67
2024/01/11 00:36:40;;;;;;;107.38;35.33;;;;;;;-146.25;100.00;52611.50;2016788;29;20872;-67
2024/01/11 00:37:41;;;;;;;118.00;35.47;;;;;;;-146.25;100.00;52617.59;2016166;29;34260;-67
2024/01/11 00:38:43;;;;;;;123.05;37.38;;;;;;;-146.25;100.00;52635.84;2023542;29;32474;-67
2024/01/11 00:39:45;;;;;;;131.02;36.05;;;;;;;-146.25;100.00;52603.41;2024089;29;34138;-67
2024/01/11 00:40:47;;;;;;;127.28;36.70;;;;;;;-146.25;100.00;52609.50;2024510;29;37546;-67
2024/01/11 00:41:48;;;;;;;118.82;37.45;;;;;;;-146.25;100.00;52674.38;2015612;29;37056;-67
2024/01/11 00:42:50;;;;;;;134.38;36.75;;;;;;;-146.25;100.00;52595.28;2016345;29;33865;-67
2024/01/11 00:43:52;;;;;;;103.57;35.47;;;;;;;-146.25;100.00;52615.56;2023987;29;36915;-67
2024/01/11 00:44:54;;;;;;;126.40;35.72;;;;;;;-146.25;100.00;52595.28;2016845;29;20049;-67
2024/01/11 00:45:58;;;;;;;117.57;37.60;;;;;;;-146.25;100.00;52629.75;2015644;29;35857;-67
2024/01/11 00:46:59;;;;;;;125.50;38.22;;;;;;;-146.25;100.00;52623.69;2024274;29;35263;-67
2024/01/11 00:48:02;;;;;;;120.85;37.38;;;;;;;-146.25;100.00;52629.75;2016424;29;20133;-67
2024/01/11 00:49:04;;;;;;;132.23;35.40;;;;;;;-146.25;100.00;52633.81;2016432;29;27706;-67
2024/01/11 00:50:06;;;;;;;148.20;36.45;;;;;;;-146.25;100.00;52629.75;2023204;29;32904;-67
2024/01/11 00:51:08;;;;;;;119.00;38.92;;;;;;;-146.25;100.00;52619.63;2025060;29;20045;-67
2024/01/11 00:52:13;;;;;;;117.38;35.45;;;;;;;-146.25;100.00;52619.63;2023857;29;35725;-67
2024/01/11 00:53:17;;;;;;;121.05;35.05;;;;;;;-146.25;100.00;52633.81;2024354;29;31456;-67
2024/01/11 00:54:19;;;;;;;121.88;37.75;;;;;;;-146.25;100.00;52617.59;2024204;29;31752;-68
2024/01/11 00:55:20;;;;;;;110.72;37.25;;;;;;;-146.25;100.00;52637.88;2024336;29;32347;-67
2024/01/11 00:56:22;;;;;;;121.15;37.10;;;;;;;-146.25;100.00;52617.59;2024500;29;25908;-67
2024/01/11 00:57:24;;;;;;;116.53;36.75;;;;;;;-146.25;100.00;52625.72;2025093;29;20163;-67
2024/01/11 00:58:26;;;;;;;121.47;36.45;;;;;;;-146.25;100.00;52641.94;2023891;29;24726;-67
2024/01/11 00:59:28;;;;;;;106.03;35.33;;;;;;;-146.25;100.00;52609.50;2024358;29;34113;-67
2024/01/11 01:00:31;;;;;;;111.13;33.88;;;;;;;-146.25;100.00;52641.94;2024165;29;34112;-67
2024/01/11 01:01:33;;;;;;;110.25;36.05;;;;;;;-146.25;100.00;52635.84;2024512;29;33189;-67
2024/01/11 01:02:37;;;;;;;107.03;34.80;;;;;;;-146.25;100.00;52631.78;2023886;29;34018;-67
2024/01/11 01:03:39;;;;;;;113.28;34.65;;;;;;;-146.25;100.00;52629.75;2024847;29;20082;-67
2024/01/11 01:04:41;;;;;;;100.68;33.65;;;;;;;-146.25;100.00;52615.56;2015442;29;36195;-67
2024/01/11 01:05:43;;;;;;;113.90;36.42;;;;;;;-146.25;100.00;52605.44;2008420;29;31813;-67
2024/01/11 01:06:45;;;;;;;108.63;35.72;;;;;;;-146.25;100.00;52597.31;2008225;29;34112;-67
2024/01/11 01:07:47;;;;;;;102.75;34.15;;;;;;;-146.25;100.00;52633.81;2016267;29;34050;-67
2024/01/11 01:08:48;;;;;;;108.90;36.72;;;;;;;-146.25;100.00;52619.63;2023985;29;33101;-67
2024/01/11 01:09:51;;;;;;;105.97;35.15;;;;;;;-146.25;100.00;52631.78;2024150;29;32890;-67
2024/01/11 01:10:53;;;;;;;123.93;34.72;;;;;;;-146.25;100.00;52619.63;2024044;29;34433;-67
2024/01/11 01:11:57;;;;;;;117.38;34.22;;;;;;;-146.25;100.00;52623.69;2024698;29;20187;-67
2024/01/11 01:13:00;;;;;;;110.25;35.15;;;;;;;-146.25;100.00;52595.28;2024035;29;33888;-67
2024/01/11 01:14:02;;;;;;;117.95;32.17;;;;;;;-146.25;100.00;52611.50;2024581;29;37084;-67
2024/01/11 01:15:06;;;;;;;142.65;35.50;;;;;;;-146.25;100.00;52631.78;2016043;29;20970;-67
2024/01/11 01:16:07;;;;;;;110.32;35.00;;;;;;;-146.25;100.00;52650.03;2016235;29;37046;-67
2024/01/11 01:17:09;;;;;;;126.18;37.00;;;;;;;-146.25;100.00;52654.09;2024173;29;31677;-67
2024/01/11 01:18:12;;;;;;;116.93;35.30;;;;;;;-146.25;100.00;52660.19;2024774;29;20098;-67
2024/01/11 01:19:14;;;;;;;114.45;35.50;;;;;;;-146.25;100.00;52631.78;2023724;29;38456;-67
2024/01/11 01:20:16;;;;;;;108.75;34.38;;;;;;;-146.25;100.00;52656.13;2015657;29;33093;-67
2024/01/11 01:21:20;;;;;;;109.97;36.00;;;;;;;-146.25;100.00;52629.75;2016341;29;20041;-67
2024/01/11 01:22:22;;;;;;;146.43;35.40;;;;;;;-146.25;100.00;52627.75;2024900;29;20807;-67
2024/01/11 01:23:24;;;;;;;111.43;34.78;;;;;;;-146.25;100.00;52619.63;2023888;29;36682;-67
2024/01/11 01:24:25;;;;;;;89.65;31.67;;;;;;;-146.25;100.00;52643.97;2023608;29;33073;-67
2024/01/11 01:25:27;;;;;;;111.93;35.90;;;;;;;-146.25;100.00;52615.56;2024617;29;20045;-67
2024/01/11 01:26:29;;;;;;;116.47;36.80;;;;;;;-146.25;100.00;52631.78;2016217;29;20104;-67
2024/01/11 01:27:31;;;;;;;95.05;32.42;;;;;;;-146.25;100.00;52645.97;2015771;29;33815;-68
2024/01/11 01:28:33;;;;;;;126.00;35.90;;;;;;;-146.25;100.00;52643.97;2015339;29;33472;-67
2024/01/11 01:29:35;;;;;;;117.13;36.90;;;;;;;-146.25;100.00;52603.41;2015516;29;35906;-67
2024/01/11 01:30:37;;;;;;;101.55;34.50;;;;;;;-146.25;100.00;52629.75;2023730;29;32345;-67
2024/01/11 01:31:39;;;;;;;108.50;33.75;;;;;;;-146.25;100.00;52633.81;2024357;29;20377;-66
2024/01/11 01:32:41;;;;;;;105.10;32.08;;;;;;;-146.25;100.00;52656.13;2024281;29;20041;-67
2024/01/11 01:33:45;;;;;;;100.93;34.60;;;;;;;-146.25;100.00;52639.91;2024290;29;20139;-67
2024/01/11 01:34:47;;;;;;;87.10;32.50;;;;;;;-146.25;100.00;52648.00;2015189;29;37439;-66
2024/01/11 01:35:50;;;;;;;94.75;34.45;;;;;;;-146.25;100.00;52627.75;2016304;29;20089;-67
2024/01/11 01:36:52;;;;;;;135.85;34.78;;;;;;;-146.25;100.00;52645.97;2024127;29;35949;-67
2024/01/11 01:37:53;;;;;;;106.65;35.22;;;;;;;-146.25;100.00;52635.84;2024515;29;20056;-66
2024/01/11 01:38:55;;;;;;;123.82;35.88;;;;;;;-146.25;100.00;52629.75;2024260;29;38631;-67
2024/01/11 01:39:57;;;;;;;106.68;35.05;;;;;;;-146.25;100.00;52609.50;2023703;29;34913;-67
2024/01/11 01:40:59;;;;;;;129.38;34.50;;;;;;;-146.25;100.00;52631.78;2024109;29;33171;-66
2024/01/11 01:42:00;;;;;;;107.13;35.63;;;;;;;-146.25;100.00;52621.66;2023635;29;33138;-67
2024/01/11 01:43:10;;;;;;;116.30;35.45;;;;;;;-146.25;100.00;52579.06;2024150;29;34384;-67
2024/01/11 01:44:12;;;;;;;105.03;34.83;;;;;;;-146.25;100.00;52625.72;2015471;29;33392;-67
2024/01/11 01:45:16;;;;;;;115.60;34.92;;;;;;;-146.25;100.00;52623.69;2016982;29;20062;-67
2024/01/11 01:46:23;;;;;;;109.95;34.70;;;;;;;-146.25;100.00;52607.47;2016197;29;20045;-67
2024/01/11 01:47:27;;;;;;;103.30;34.60;;;;;;;-146.25;100.00;52650.03;2016814;29;30180;-67
2024/01/11 01:48:32;;;;;;;94.03;32.00;;;;;;;-146.25;100.00;52652.06;2015867;29;20049;-67
2024/01/11 01:49:35;;;;;;;101.65;35.00;;;;;;;-146.25;100.00;52660.19;2016260;29;36773;-67
2024/01/11 01:50:50;;;;;;;92.05;32.00;;;;;;;-146.25;100.00;52635.84;2024467;29;20926;-67
2024/01/11 01:51:53;;;;;;;94.00;31.88;;;;;;;-146.25;100.00;52587.19;2015353;29;34903;-68
2024/01/11 01:52:56;;;;;;;95.50;32.10;;;;;;;-146.25;100.00;52635.84;2008963;29;30561;-67
2024/01/11 01:54:01;;;;;;;92.47;33.70;;;;;;;-146.25;100.00;52609.50;2007991;29;35317;-67
2024/01/11 01:55:05;;;;;;;104.43;35.85;;;;;;;-146.25;100.00;52629.75;2016272;29;33381;-67
2024/01/11 01:56:08;;;;;;;91.22;32.50;;;;;;;-146.25;100.00;52623.69;2015542;29;34321;-67
2024/01/11 01:57:12;;;;;;;87.13;31.08;;;;;;;-146.25;100.00;52607.47;2016158;29;36312;-67
2024/01/11 01:58:18;;;;;;;97.22;33.60;;;;;;;-146.25;100.00;52631.78;2023073;29;36705;-67
2024/01/11 01:59:25;;;;;;;96.95;34.10;;;;;;;-146.25;100.00;52645.97;2023162;29;32318;-67
2024/01/11 02:00:27;;;;;;;92.78;33.42;;;;;;;-146.25;100.00;52635.84;2024375;29;20921;-67
2024/01/11 02:01:31;;;;;;;94.22;34.17;;;;;;;-146.25;100.00;52621.66;2025002;29;20921;-67
2024/01/11 02:02:34;;;;;;;97.13;34.22;;;;;;;-146.25;100.00;52645.97;2015126;29;34820;-67
2024/01/11 02:03:36;;;;;;;97.30;33.40;;;;;;;-146.25;100.00;52607.47;2016050;29;31417;-67
2024/01/11 02:04:38;;;;;;;93.40;33.05;;;;;;;-146.25;100.00;52631.78;2023698;29;33001;-67
2024/01/11 02:05:40;;;;;;;96.13;34.28;;;;;;;-146.25;100.00;52633.81;2023684;29;35334;-67
2024/01/11 02:06:46;;;;;;;106.57;36.30;;;;;;;-146.25;100.00;52589.22;2023502;29;32865;-67
2024/01/11 02:07:51;;;;;;;99.78;35.40;;;;;;;-146.25;100.00;52648.00;2015550;29;36166;-66
2024/01/11 02:08:56;;;;;;;104.38;35.10;;;;;;;-146.25;100.00;52631.78;2009023;29;31754;-66
2024/01/11 02:09:58;;;;;;;100.65;33.90;;;;;;;-146.25;100.00;52648.00;2008362;29;36029;-67
2024/01/11 02:11:01;;;;;;;91.22;32.65;;;;;;;-146.25;100.00;52635.84;2015893;29;33402;-67
2024/01/11 02:12:04;;;;;;;89.82;33.33;;;;;;;-146.25;100.00;52619.63;2016042;29;20125;-65
2024/01/11 02:13:06;;;;;;;84.47;30.90;;;;;;;-146.25;100.00;52613.53;2015759;29;37009;-67
2024/01/11 02:14:11;;;;;;;83.35;31.83;;;;;;;-146.25;100.00;52650.03;2015350;29;31331;-67
2024/01/11 02:15:14;;;;;;;95.70;34.53;;;;;;;-146.25;100.00;52639.91;2015940;29;35303;-67
2024/01/11 02:16:16;;;;;;;93.50;33.70;;;;;;;-146.25;100.00;52650.03;2024171;29;26790;-67
2024/01/11 02:17:18;;;;;;;91.47;34.63;;;;;;;-146.25;100.00;52633.81;2023855;29;30160;-67
2024/01/11 02:18:19;;;;;;;103.78;35.65;;;;;;;-146.25;100.00;52613.53;2015336;29;36411;-67
2024/01/11 02:19:21;;;;;;;96.35;34.63;;;;;;;-146.25;100.00;52627.75;2007323;29;34165;-67
2024/01/11 02:20:23;;;;;;;98.65;35.17;;;;;;;-146.25;100.00;52635.84;2015560;29;34133;-67
2024/01/11 02:21:28;;;;;;;103.80;36.03;;;;;;;-146.25;100.00;52627.75;2023607;29;31543;-67
2024/01/11 02:22:40;;;;;;;103.05;35.83;;;;;;;-146.25;100.00;52589.22;2015157;29;32867;-67
2024/01/11 02:24:06;;;;;;;101.55;35.17;;;;;;;-146.25;100.00;52668.28;2010309;29;20077;-67
2024/01/11 02:25:08;;;;;;;96.25;32.92;;;;;;;-146.25;100.00;52623.69;2012212;29;33590;-67
2024/01/11 02:26:10;;;;;;;93.68;32.97;;;;;;;-146.25;100.00;52627.75;2017828;29;34401;-67
2024/01/11 02:27:11;;;;;;;97.43;35.20;;;;;;;-146.25;100.00;52611.50;2023863;29;33822;-67
2024/01/11 02:28:14;;;;;;;94.80;32.75;;;;;;;-146.25;100.00;52660.19;2023502;29;34831;-67
2024/01/11 02:29:18;;;;;;;101.20;34.50;;;;;;;-146.25;100.00;52660.19;2014716;29;38086;-67
2024/01/11 02:30:20;;;;;;;105.53;35.40;;;;;;;-146.25;100.00;52603.41;2015508;29;35311;-66
2024/01/11 02:31:23;;;;;;;94.03;34.10;;;;;;;-146.25;100.00;52643.97;2023138;29;34138;-67
2024/01/11 02:32:25;;;;;;;102.40;35.45;;;;;;;-146.25;100.00;52643.97;2023341;29;37524;-67
2024/01/11 02:33:27;;;;;;;103.57;34.88;;;;;;;-146.25;100.00;52627.75;2024137;29;35746;-67
2024/01/11 02:34:29;;;;;;;107.07;34.83;;;;;;;-146.25;100.00;52591.25;2015090;29;32237;-67
2024/01/11 02:35:32;;;;;;;99.85;35.67;;;;;;;-146.25;100.00;52613.53;2008043;29;34840;-67
2024/01/11 02:36:34;;;;;;;106.95;35.00;;;;;;;-146.25;100.00;52623.69;2015266;29;35215;-67
2024/01/11 02:37:38;;;;;;;93.70;33.15;;;;;;;-146.25;100.00;52627.75;2015334;29;35892;-67
2024/01/11 02:38:43;;;;;;;100.93;34.58;;;;;;;-146.25;100.00;52635.84;2016123;29;20040;-67
2024/01/11 02:39:45;;;;;;;92.05;33.17;;;;;;;-146.25;100.00;52617.59;2022375;29;33450;-67
2024/01/11 02:40:48;;;;;;;96.72;33.17;;;;;;;-146.25;100.00;52645.97;2023038;29;33976;-67
2024/01/11 02:41:52;;;;;;;96.47;35.03;;;;;;;-146.25;100.00;52660.19;2024373;29;32467;-67
2024/01/11 02:42:56;;;;;;;105.72;35.40;;;;;;;-146.25;100.00;52674.38;2024922;29;29660;-67
2024/01/11 02:43:58;;;;;;;101.47;33.72;;;;;;;-146.25;100.00;52619.63;2016738;29;31286;-67
2024/01/11 02:45:03;;;;;;;97.78;35.53;;;;;;;-146.25;100.00;52601.38;2016620;29;34603;-67
2024/01/11 02:46:07;;;;;;;112.97;35.97;;;;;;;-146.25;100.00;52599.34;2025035;29;20085;-67
2024/01/11 02:47:08;;;;;;;96.95;33.10;;;;;;;-146.25;100.00;52648.00;2025154;29;36593;-67
2024/01/11 02:48:10;;;;;;;98.95;34.55;;;;;;;-146.25;100.00;52660.19;2024921;29;32498;-68
2024/01/11 02:49:12;;;;;;;93.40;34.40;;;;;;;-146.25;100.00;52607.47;2024995;29;33602;-66
2024/01/11 02:50:14;;;;;;;92.90;33.70;;;;;;;-146.25;100.00;52603.41;2023946;29;38506;-66
2024/01/11 02:51:18;;;;;;;96.22;34.30;;;;;;;-146.25;100.00;52635.84;2025035;29;34754;-67
2024/01/11 02:52:20;;;;;;;100.25;33.05;;;;;;;-146.25;100.00;52603.41;2024802;29;31363;-67
2024/01/11 02:53:22;;;;;;;92.03;32.40;;;;;;;-146.25;100.00;52648.00;2024452;29;33919;-67
2024/01/11 02:54:24;;;;;;;94.95;33.10;;;;;;;-146.25;100.00;52666.25;2024700;29;36992;-67
2024/01/11 02:55:26;;;;;;;97.43;34.65;;;;;;;-146.25;100.00;52615.56;2017087;29;20048;-67
2024/01/11 02:56:28;;;;;;;95.35;33.17;;;;;;;-146.25;100.00;52645.97;2016952;29;35322;-67
2024/01/11 02:57:29;;;;;;;88.68;33.60;;;;;;;-146.25;100.00;52643.97;2016396;29;34964;-67
2024/01/11 02:58:32;;;;;;;99.97;33.88;;;;;;;-146.25;100.00;52660.19;2016376;29;33924;-67
2024/01/11 02:59:33;;;;;;;96.43;34.50;;;;;;;-146.25;100.00;52668.28;2016475;29;33927;-66
2024/01/11 03:00:35;;;;;;;94.72;33.88;;;;;;;-146.25;100.00;52652.06;2008186;29;32630;-67
2024/01/11 03:01:37;;;;;;;99.80;34.67;;;;;;;-146.25;100.00;52633.81;2016407;29;34333;-67
2024/01/11 03:02:39;;;;;;;94.38;33.65;;;;;;;-146.25;100.00;52631.78;2024385;29;28886;-67
2024/01/11 03:03:40;;;;;;;90.72;32.78;;;;;;;-146.25;100.00;52603.41;2024131;29;35272;-68
2024/01/11 03:04:42;;;;;;;93.35;33.70;;;;;;;-146.25;100.00;52595.28;2025061;29;32620;-67
2024/01/11 03:05:44;;;;;;;95.63;32.65;;;;;;;-146.25;100.00;52635.84;2024530;29;35038;-66
2024/01/11 03:06:46;;;;;;;95.25;33.35;;;;;;;-146.25;100.00;52660.19;2025309;29;20818;-67
2024/01/11 03:07:51;;;;;;;100.07;33.63;;;;;;;-146.25;100.00;52639.91;2025449;29;20037;-67
2024/01/11 03:08:52;;;;;;;94.88;33.72;;;;;;;-146.25;100.00;52635.84;2025433;29;33526;-68
2024/01/11 03:09:54;;;;;;;92.15;32.55;;;;;;;-146.25;100.00;52633.81;2015978;29;37528;-67
2024/01/11 03:10:56;;;;;;;91.00;33.22;;;;;;;-146.25;100.00;52629.75;2016475;29;31126;-67
2024/01/11 03:11:58;;;;;;;88.68;33.47;;;;;;;-146.25;100.00;52637.88;2024934;29;28611;-67
2024/01/11 03:12:59;;;;;;;106.32;36.33;;;;;;;-146.25;100.00;52621.66;2016553;29;32677;-68
2024/01/11 03:14:02;;;;;;;93.75;33.25;;;;;;;-146.25;100.00;52643.97;2016304;29;36546;-67
2024/01/11 03:15:07;;;;;;;87.50;32.45;;;;;;;-146.25;100.00;52623.69;2025557;29;20045;-67
2024/01/11 03:16:09;;;;;;;88.20;32.25;;;;;;;-146.25;100.00;52611.50;2025286;29;20188;-67
2024/01/11 03:17:10;;;;;;;96.97;33.70;;;;;;;-146.25;100.00;52639.91;2024788;29;37600;-67
2024/01/11 03:18:12;;;;;;;92.95;33.45;;;;;;;-146.25;100.00;52668.28;2024557;29;34700;-67
2024/01/11 03:19:14;;;;;;;93.72;33.15;;;;;;;-146.25;100.00;52648.00;2024486;29;20033;-67
2024/01/11 03:20:21;;;;;;;96.88;33.72;;;;;;;-146.25;100.00;52615.56;2016189;29;35194;-67
2024/01/11 03:21:23;;;;;;;96.45;33.80;;;;;;;-146.25;100.00;52629.75;2016801;29;33181;-67
2024/01/11 03:22:25;;;;;;;99.60;34.10;;;;;;;-146.25;100.00;52633.81;2016558;29;33429;-67
2024/01/11 03:23:27;;;;;;;94.88;33.75;;;;;;;-146.25;100.00;52603.41;2015872;29;37235;-66
2024/01/11 03:24:29;;;;;;;92.85;33.58;;;;;;;-146.25;100.00;52631.78;2016906;29;20037;-66
2024/01/11 03:25:32;;;;;;;98.90;34.80;;;;;;;-146.25;100.00;52591.25;2024643;29;36707;-66
2024/01/11 03:26:36;;;;;;;94.07;33.75;;;;;;;-146.25;100.00;52601.38;2024689;29;31095;-66
2024/01/11 03:27:38;;;;;;;100.60;34.67;;;;;;;-146.25;100.00;52619.63;2025455;29;20052;-66
2024/01/11 03:28:40;;;;;;;98.70;34.30;;;;;;;-146.25;100.00;52625.72;2024388;29;36741;-66
2024/01/11 03:29:41;;;;;;;101.07;34.15;;;;;;;-146.25;100.00;52635.84;2024137;29;36290;-66
2024/01/11 03:30:43;;;;;;;96.30;33.50;;;;;;;-146.25;100.00;52605.44;2025102;29;20045;-67
2024/01/11 03:31:45;;;;;;;97.75;31.98;;;;;;;-146.25;100.00;52652.06;2025781;29;20899;-66
2024/01/11 03:32:47;;;;;;;96.88;32.70;;;;;;;-146.25;100.00;52648.00;2024543;29;37916;-67
2024/01/11 03:33:51;;;;;;;97.80;34.08;;;;;;;-146.25;100.00;52658.16;2025446;29;20929;-67
2024/01/11 03:34:53;;;;;;;87.85;30.88;;;;;;;-146.25;100.00;52643.97;2024354;29;34078;-67
2024/01/11 03:35:55;;;;;;;93.93;33.22;;;;;;;-146.25;100.00;52623.69;2024368;29;34663;-67
2024/01/11 03:36:57;;;;;;;94.15;32.90;;;;;;;-146.25;100.00;52599.34;2025094;29;20270;-67
2024/01/11 03:37:58;;;;;;;85.60;31.10;;;;;;;-146.25;100.00;52643.97;2024132;29;35509;-67
2024/01/11 03:39:01;;;;;;;89.38;31.75;;;;;;;-146.25;100.00;52648.00;2023838;29;34853;-67
2024/01/11 03:40:04;;;;;;;94.93;31.77;;;;;;;-146.25;100.00;52660.19;2024926;29;31185;-67
2024/01/11 03:41:12;;;;;;;83.82;30.73;;;;;;;-146.25;100.00;52611.50;2015990;29;36891;-67
2024/01/11 03:42:13;;;;;;;94.78;33.20;;;;;;;-146.25;100.00;52682.47;2017808;29;33007;-67
2024/01/11 03:43:18;;;;;;;90.70;33.15;;;;;;;-146.25;100.00;52627.75;2024516;29;33833;-67
2024/01/11 03:44:22;;;;;;;98.80;31.85;;;;;;;-146.25;100.00;52635.84;2023446;29;37013;-67
2024/01/11 03:45:24;;;;;;;100.10;32.25;;;;;;;-146.25;100.00;52629.75;2015953;29;32268;-67
2024/01/11 03:46:25;;;;;;;88.90;31.48;;;;;;;-146.25;100.00;52607.47;2016300;29;34861;-67
2024/01/11 03:47:27;;;;;;;90.85;32.42;;;;;;;-146.25;100.00;52662.22;2023988;29;33288;-67
2024/01/11 03:48:30;;;;;;;90.78;31.13;;;;;;;-146.25;100.00;52577.03;2025207;29;20056;-67
2024/01/11 03:49:32;;;;;;;145.18;29.65;;;;;;;-146.25;100.00;52601.38;2024238;29;36121;-67
2024/01/11 03:50:34;;;;;;;99.90;30.98;;;;;;;-146.25;100.00;52629.75;2024593;29;34364;-67
2024/01/11 03:51:36;;;;;;;96.38;30.40;;;;;;;-146.25;100.00;52662.22;2024045;29;33652;-67
2024/01/11 03:52:39;;;;;;;95.07;30.92;;;;;;;-146.25;100.00;52607.47;2024449;29;38787;-67
2024/01/11 03:53:41;;;;;;;116.10;30.80;;;;;;;-146.25;100.00;52627.75;2025842;29;20038;-67
2024/01/11 03:54:43;;;;;;;80.85;29.35;;;;;;;-146.25;100.00;52643.97;2024255;29;39275;-67
2024/01/11 03:55:45;;;;;;;88.78;29.98;;;;;;;-146.25;100.00;52629.75;2024351;29;35025;-65
2024/01/11 03:56:46;;;;;;;89.28;29.10;;;;;;;-146.25;100.00;52635.84;2025319;29;20812;-67
2024/01/11 03:57:48;;;;;;;86.50;30.55;;;;;;;-146.25;100.00;52635.84;2023637;29;38555;-67
2024/01/11 03:58:50;;;;;;;91.13;31.23;;;;;;;-146.25;100.00;52648.00;2024887;29;30210;-66
2024/01/11 03:59:52;;;;;;;81.90;30.48;;;;;;;-146.25;100.00;52668.28;2024717;29;20050;-67
2024/01/11 04:00:56;;;;;;;87.95;30.08;;;;;;;-146.25;100.00;52623.69;2023983;29;34191;-67
2024/01/11 04:02:00;;;;;;;74.70;28.35;;;;;;;-146.25;100.00;52609.50;2023927;29;20818;-67
2024/01/11 04:03:02;;;;;;;77.82;27.33;;;;;;;-146.25;100.00;52613.53;2023586;29;35662;-67
2024/01/11 04:04:04;;;;;;;80.22;29.63;;;;;;;-146.25;100.00;52662.22;2024465;29;29615;-67
2024/01/11 04:05:08;;;;;;;96.40;31.00;;;;;;;-146.25;100.00;52643.97;2024738;29;20045;-67
2024/01/11 04:06:21;;;;;;;70.45;26.13;;;;;;;-146.25;100.00;52639.91;2024320;29;32548;-67
2024/01/11 04:07:24;;;;;;;85.25;29.73;;;;;;;-146.25;100.00;52625.72;2016176;29;34400;-68
2024/01/11 04:08:26;;;;;;;91.72;31.88;;;;;;;-146.25;100.00;52633.81;2016737;29;33892;-67
2024/01/11 04:09:29;;;;;;;81.50;30.42;;;;;;;-146.25;100.00;52619.63;2023743;29;31530;-67
2024/01/11 04:10:31;;;;;;;84.25;29.65;;;;;;;-146.25;100.00;52627.75;2024220;29;36899;-67
2024/01/11 04:11:37;;;;;;;95.68;32.58;;;;;;;-146.25;100.00;52631.78;2025286;29;20057;-67
2024/01/11 04:12:39;;;;;;;87.93;31.40;;;;;;;-146.25;100.00;52623.69;2024526;29;37473;-67
2024/01/11 04:13:41;;;;;;;89.72;32.33;;;;;;;-146.25;100.00;52631.78;2024265;29;36449;-67
2024/01/11 04:14:43;;;;;;;96.88;32.88;;;;;;;-146.25;100.00;52648.00;2024681;29;32172;-67
2024/01/11 04:15:45;;;;;;;97.30;33.03;;;;;;;-146.25;100.00;52597.31;2024816;29;35667;-67
2024/01/11 04:16:47;;;;;;;91.68;31.60;;;;;;;-146.25;100.00;52599.34;2016686;29;20164;-67
2024/01/11 04:17:49;;;;;;;87.97;30.38;;;;;;;-146.25;100.00;52660.19;2015858;29;32833;-68
2024/01/11 04:18:53;;;;;;;109.13;33.30;;;;;;;-146.25;100.00;52648.00;2024469;29;32726;-67
2024/01/11 04:19:55;;;;;;;94.00;31.58;;;;;;;-146.25;100.00;52595.28;2024040;29;36558;-67
2024/01/11 04:20:58;;;;;;;97.07;31.25;;;;;;;-146.25;100.00;52619.63;2025100;29;20052;-67
2024/01/11 04:22:00;;;;;;;95.00;32.28;;;;;;;-146.25;100.00;52631.78;2024385;29;35767;-68
2024/01/11 04:23:04;;;;;;;103.22;32.10;;;;;;;-146.25;100.00;52623.69;2024515;29;29553;-67
2024/01/11 04:24:06;;;;;;;91.78;31.50;;;;;;;-146.25;100.00;52605.44;2024041;29;33975;-67
2024/01/11 04:25:08;;;;;;;100.43;31.60;;;;;;;-146.25;100.00;52648.00;2024554;29;20973;-67
2024/01/11 04:26:10;;;;;;;111.57;31.67;;;;;;;-146.25;100.00;52648.00;2024351;29;34234;-67
2024/01/11 04:27:12;;;;;;;100.95;31.42;;;;;;;-146.25;100.00;52631.78;2024074;29;36546;-67
2024/01/11 04:28:14;;;;;;;108.10;33.75;;;;;;;-146.25;100.00;52641.94;2025062;29;20894;-67
2024/01/11 04:29:15;;;;;;;105.95;33.08;;;;;;;-146.25;100.00;52625.72;2024636;29;25909;-67
2024/01/11 04:30:17;;;;;;;111.85;33.88;;;;;;;-146.25;100.00;52631.78;2024109;29;32821;-67
2024/01/11 04:31:19;;;;;;;117.70;31.73;;;;;;;-146.25;100.00;52621.66;2024906;29;20041;-67
2024/01/11 04:32:21;;;;;;;118.18;32.58;;;;;;;-146.25;100.00;52625.72;2024210;29;38992;-67
2024/01/11 04:33:23;;;;;;;113.25;34.20;;;;;;;-146.25;100.00;52635.84;2024184;29;33398;-67
2024/01/11 04:34:27;;;;;;;124.20;36.78;;;;;;;-146.25;100.00;52672.34;2024315;29;20163;-68
2024/01/11 04:35:32;;;;;;;121.97;32.90;;;;;;;-146.25;100.00;52670.31;2024252;29;37860;-67
2024/01/11 04:36:38;;;;;;;96.32;30.67;;;;;;;-146.25;100.00;52639.91;2016019;29;36536;-67